Time;durP1;ratioP1;P1;durP2;ratioP2;P2;SDS_P1;SDS_P2;PMS_P1;PMS_P2;Temp;Humidity;BMP_temperature;BMP_pressure;BME280_temperature;BME280_humidity;BME280_pressure;Samples;Min_cycle;Max_cycle;Signal;HPM_P1;HPM_P2
2020/12/05 16:24:46;;;;;;;6.57;3.80;;;5.30;99.90;;;;;;5087309;27;20401;-58
2020/12/05 16:27:12;;;;;;;7.40;4.28;;;5.20;99.90;;;;;;5067657;28;20021;-58
2020/12/05 16:29:38;;;;;;;7.78;4.15;;;5.20;99.90;;;;;;5065884;28;20380;-56
2020/12/05 16:32:03;;;;;;;5.55;3.70;;;5.20;99.90;;;;;;5066071;28;20025;-58
2020/12/05 16:34:32;;;;;;;7.43;4.10;;;5.20;99.90;;;;;;5066171;28;20089;-56
2020/12/05 16:36:58;;;;;;;8.85;4.38;;;5.20;99.90;;;;;;5061065;28;20021;-59
2020/12/05 16:39:24;;;;;;;7.30;4.45;;;5.20;99.90;;;;;;5059706;28;20029;-57
2020/12/05 16:42:00;;;;;;;8.95;4.20;;;5.20;99.90;;;;;;5063205;28;20025;-60
2020/12/05 16:44:25;;;;;;;6.97;4.35;;;5.20;99.90;;;;;;5060259;28;20150;-57
2020/12/05 16:46:51;;;;;;;8.77;4.40;;;5.30;99.90;;;;;;5062304;28;20057;-59
2020/12/05 16:49:18;;;;;;;7.57;4.55;;;5.30;99.90;;;;;;5062621;28;20039;-57
2020/12/05 16:51:49;;;;;;;7.30;5.38;;;5.30;99.90;;;;;;5062312;28;20112;-56
2020/12/05 16:54:14;;;;;;;13.65;7.30;;;5.30;99.90;;;;;;5062782;28;20446;-59
2020/12/05 16:56:40;;;;;;;13.35;7.22;;;5.30;99.90;;;;;;5061252;28;20041;-59
2020/12/05 16:59:05;;;;;;;9.73;5.97;;;5.30;99.90;;;;;;5062695;28;20033;-59
2020/12/05 17:01:31;;;;;;;10.43;4.97;;;5.30;99.90;;;;;;5062250;28;20496;-56
2020/12/05 17:03:56;;;;;;;7.72;4.65;;;5.20;99.90;;;;;;5063002;28;20422;-57
2020/12/05 17:06:22;;;;;;;10.57;4.50;;;5.20;99.90;;;;;;5062317;28;20021;-58
2020/12/05 17:08:48;;;;;;;7.03;4.97;;;5.20;99.90;;;;;;5068902;28;20033;-57
2020/12/05 17:11:15;;;;;;;8.23;4.85;;;5.20;99.90;;;;;;5062310;28;20217;-57
2020/12/05 17:13:41;;;;;;;8.32;4.72;;;5.20;99.90;;;;;;5061908;28;20032;-58
2020/12/05 17:16:07;;;;;;;12.63;5.53;;;5.20;99.90;;;;;;5061392;28;20029;-57
2020/12/05 17:18:33;;;;;;;7.47;5.63;;;5.30;99.90;;;;;;5062934;28;20036;-57
2020/12/05 17:20:58;;;;;;;8.75;6.30;;;5.20;99.90;;;;;;5062283;28;20033;-57
2020/12/05 17:23:24;;;;;;;8.70;5.32;;;5.20;99.90;;;;;;5061496;28;20033;-59
2020/12/05 17:25:49;;;;;;;9.27;6.18;;;5.20;99.90;;;;;;5064178;28;20491;-59
2020/12/05 17:28:15;;;;;;;10.18;6.60;;;5.20;99.90;;;;;;5061364;28;20021;-58
2020/12/05 17:30:41;;;;;;;13.02;6.57;;;5.20;99.90;;;;;;5061510;28;20071;-57
2020/12/05 17:33:07;;;;;;;13.02;6.65;;;5.20;99.90;;;;;;5062169;28;20503;-58
2020/12/05 17:35:32;;;;;;;12.48;6.90;;;5.20;99.90;;;;;;5062984;28;20041;-58
2020/12/05 17:37:58;;;;;;;10.10;7.32;;;5.20;99.90;;;;;;5068978;28;20676;-58
2020/12/05 17:40:23;;;;;;;48.38;13.15;;;5.20;99.90;;;;;;5050695;28;20032;-58
2020/12/05 17:42:49;;;;;;;63.17;18.77;;;5.20;99.90;;;;;;5048627;28;20021;-57
2020/12/05 17:45:15;;;;;;;48.70;15.90;;;5.10;99.90;;;;;;5048286;28;20025;-59
2020/12/05 17:47:41;;;;;;;12.82;7.78;;;5.10;99.90;;;;;;5048648;28;20087;-58
2020/12/05 17:50:07;;;;;;;13.60;7.78;;;5.10;99.90;;;;;;5048936;28;20021;-58
2020/12/05 17:52:33;;;;;;;13.57;7.10;;;5.10;99.90;;;;;;5046354;28;20745;-55
2020/12/05 17:54:58;;;;;;;12.45;7.53;;;5.10;99.90;;;;;;5047716;28;20036;-55
2020/12/05 17:57:24;;;;;;;13.77;7.65;;;5.10;99.90;;;;;;5055233;28;20035;-56
2020/12/05 17:59:50;;;;;;;13.32;7.68;;;5.00;99.90;;;;;;5048609;28;20087;-56
2020/12/05 18:02:16;;;;;;;15.13;7.72;;;5.10;99.90;;;;;;5049622;28;20025;-56
2020/12/05 18:04:42;;;;;;;13.20;7.97;;;5.10;99.90;;;;;;5050657;28;20102;-57
2020/12/05 18:07:07;;;;;;;14.82;8.52;;;5.00;99.90;;;;;;5050802;28;20438;-58
2020/12/05 18:09:34;;;;;;;14.10;9.07;;;5.00;99.90;;;;;;5050430;28;20438;-59
2020/12/05 18:12:02;;;;;;;17.75;10.18;;;5.00;99.90;;;;;;5050837;28;20120;-58
2020/12/05 18:14:28;;;;;;;16.10;9.23;;;5.00;99.90;;;;;;5050601;28;20047;-57
2020/12/05 18:16:56;;;;;;;18.95;9.75;;;5.00;99.90;;;;;;5057428;28;20044;-57
2020/12/05 18:19:23;;;;;;;19.40;10.88;;;5.00;99.90;;;;;;5056413;28;20021;-58
2020/12/05 18:21:49;;;;;;;15.73;9.55;;;5.00;99.90;;;;;;5049264;28;20055;-59
2020/12/05 18:24:15;;;;;;;18.42;11.38;;;4.90;99.90;;;;;;5050706;28;20033;-59
2020/12/05 18:26:42;;;;;;;18.48;10.13;;;4.90;99.90;;;;;;5053939;28;20376;-57
2020/12/05 18:29:08;;;;;;;14.85;9.80;;;4.90;99.90;;;;;;5052518;28;20025;-59
2020/12/05 18:31:35;;;;;;;14.05;9.57;;;4.90;99.90;;;;;;5049297;28;20053;-61
2020/12/05 18:34:02;;;;;;;14.43;9.63;;;4.90;99.90;;;;;;5049236;28;20037;-58
2020/12/05 18:36:28;;;;;;;19.10;10.95;;;4.90;99.90;;;;;;5049789;28;20071;-58
2020/12/05 18:38:54;;;;;;;20.02;9.48;;;4.90;99.90;;;;;;5050391;28;20029;-59
2020/12/05 18:41:21;;;;;;;19.38;11.15;;;4.90;99.90;;;;;;5049990;28;20521;-58
2020/12/05 18:43:47;;;;;;;24.17;12.68;;;4.90;99.90;;;;;;5049921;28;20104;-58
2020/12/05 18:46:21;;;;;;;21.80;12.02;;;4.90;99.90;;;;;;5063711;28;20056;-58
2020/12/05 18:48:47;;;;;;;19.35;12.15;;;4.80;99.90;;;;;;5050445;28;20021;-56
2020/12/05 18:51:29;;;;;;;17.05;10.45;;;4.80;99.90;;;;;;5050635;28;20021;-55
2020/12/05 18:53:57;;;;;;;17.38;11.15;;;4.90;99.90;;;;;;5049143;28;20028;-56
2020/12/05 18:56:23;;;;;;;16.92;10.88;;;4.90;99.90;;;;;;5060205;28;20035;-57
2020/12/05 18:58:49;;;;;;;19.33;11.57;;;4.80;99.90;;;;;;5049758;28;20039;-58
2020/12/05 19:01:15;;;;;;;18.25;11.48;;;4.90;99.90;;;;;;5049575;28;20033;-57
2020/12/05 19:03:43;;;;;;;21.45;12.95;;;4.90;99.90;;;;;;5049587;28;20044;-60
2020/12/05 19:06:09;;;;;;;21.45;12.15;;;4.90;99.90;;;;;;5035459;28;20442;-58
2020/12/05 19:08:35;;;;;;;17.63;11.05;;;4.80;99.90;;;;;;5049344;28;20032;-56
2020/12/05 19:11:02;;;;;;;17.13;11.32;;;4.80;99.90;;;;;;5050256;28;20037;-57
2020/12/05 19:13:28;;;;;;;19.35;10.65;;;4.80;99.90;;;;;;5048015;28;20036;-58
2020/12/05 19:15:55;;;;;;;18.23;11.77;;;4.80;99.90;;;;;;5049050;28;20422;-58
2020/12/05 19:18:22;;;;;;;22.58;13.00;;;4.80;99.90;;;;;;5049636;28;20670;-58
2020/12/05 19:20:49;;;;;;;23.15;13.07;;;4.80;99.90;;;;;;5063016;28;20040;-58
2020/12/05 19:23:14;;;;;;;19.10;11.80;;;4.80;99.90;;;;;;5058174;28;20025;-58
2020/12/05 19:25:40;;;;;;;18.27;11.57;;;4.70;99.90;;;;;;5062548;28;20037;-58
